首页
METAR-TAF:

METAR-TAF

机场 :

亞懷亞特, 努那武特, 加拿大

纬度: 61-06N, 经度: 094-04W, 海拔: 10米

当前天气观测

该预报发布于1小时和1分钟前的00:00 UTC
风速11节,风向东北,有时为16节阵风
温度 1°C
湿度 86%
气压 1024 hPa
能見度: 14.5公里
天空无云

METAR: CYEK 210000Z AUTO 05011G16KT 9SM CLR 01/M01 A3024 RMK SLP242

时间: 20:01 (01:01 UTC)

预报

该预报发布于1小时和21分钟前的23:40 UTC
预报有效从21日的 00点(UTC)到 21日的 12点(UTC)
风速12节,风向东北
能見度: 10公里
少量云层高于24000英尺
几率 30%
从 21日的 08点(UTC)到 21日的 12点(UTC)
能見度: 3.2公里
多云层高于300英尺
轻雾

TAF: CYEK 202340Z 2100/2112 04012KT P6SM FEW240 PROB30 2108/2112 2SM BR BKN003 RMK NXT FCST BY 210600Z

超过4000个机场的气象观测和天气预报(METAR&TAF报告)。

可查询的气象台以黄色和红色小点在地图上表示。

将鼠标移到小点上方,可查看气象台名称。

然后点击查看天气观测和预报。

如需切换地图:点击带黑十字的绿色按钮放大地图;点击带横线的绿色按钮缩小地图;或者点击绿色箭头查看邻近地区的地图。


METAR-TAF: